Time;durP1;ratioP1;P1;durP2;ratioP2;P2;SDS_P1;SDS_P2;PMS_P1;PMS_P2;Temp;Humidity;BMP_temperature;BMP_pressure;BME280_temperature;BME280_humidity;BME280_pressure;Samples;Min_cycle;Max_cycle;Signal;HPM_P1;HPM_P2
2021/11/21 00:01:40;;;;;;;;;;;;;;;8.91;88.11;98071.34;1675250;84;20245;-85
2021/11/21 00:04:12;;;;;;;;;;;;;;;8.91;88.16;98064.82;1670166;84;25286;-85
2021/11/21 00:06:41;;;;;;;;;;;;;;;8.90;88.20;98066.59;1679526;83;22240;-85
2021/11/21 00:09:07;;;;;;;;;;;;;;;8.90;88.21;98062.68;1677613;84;26121;-84
2021/11/21 00:11:33;;;;;;;;;;;;;;;8.89;88.24;98058.89;1671206;84;24552;-84
2021/11/21 00:14:01;;;;;;;;;;;;;;;8.87;88.23;98049.02;1676811;84;20333;-85
2021/11/21 00:16:27;;;;;;;;;;;;;;;8.84;88.25;98051.35;1668171;84;25579;-85
2021/11/21 00:18:53;;;;;;;;;;;;;;;8.83;88.26;98056.23;1676685;84;20302;-85
2021/11/21 00:21:20;;;;;;;;;;;;;;;8.81;88.25;98055.03;1670646;84;21102;-85
2021/11/21 00:23:46;;;;;;;;;;;;;;;8.80;88.26;98059.88;1670490;85;24371;-85
2021/11/21 00:26:13;;;;;;;;;;;;;;;8.80;88.28;98049.91;1643245;85;20565;-85
2021/11/21 00:28:39;;;;;;;;;;;;;;;8.83;88.32;98051.48;1677675;83;24720;-85
2021/11/21 00:31:06;;;;;;;;;;;;;;;8.83;88.34;98047.56;1673364;85;22074;-85
2021/11/21 00:33:33;;;;;;;;;;;;;;;8.81;88.34;98041.14;1669881;84;25898;-85
2021/11/21 00:35:59;;;;;;;;;;;;;;;8.81;88.36;98039.38;1669087;83;24496;-85
2021/11/21 00:38:25;;;;;;;;;;;;;;;8.81;88.37;98030.70;1664487;85;20463;-85
2021/11/21 00:40:52;;;;;;;;;;;;;;;8.80;88.39;98027.27;1670738;83;20751;-85
2021/11/21 00:43:20;;;;;;;;;;;;;;;8.78;88.41;98027.83;1672796;85;21754;-85
2021/11/21 00:45:51;;;;;;;;;;;;;;;8.75;88.39;98026.74;1673190;84;26864;-85
2021/11/21 00:48:21;;;;;;;;;;;;;;;8.75;88.42;98022.83;1671333;85;25243;-84
2021/11/21 00:50:49;;;;;;;;;;;;;;;8.74;88.42;98021.16;1669611;84;20619;-85
2021/11/21 00:53:16;;;;;;;;;;;;;;;8.76;88.46;98024.51;1676127;85;24619;-85
2021/11/21 00:55:47;;;;;;;;;;;;;;;8.77;88.48;98021.43;1663036;85;22094;-85
2021/11/21 00:58:11;;;;;;;;;;;;;;;8.77;88.50;98021.43;1675728;84;26110;-85
2021/11/21 01:00:38;;;;;;;;;;;;;;;8.74;88.52;98017.24;1670247;85;24692;-85
2021/11/21 01:03:06;;;;;;;;;;;;;;;8.75;88.55;98017.61;1670042;85;20345;-85
2021/11/21 01:05:32;;;;;;;;;;;;;;;8.76;88.55;98017.14;1672497;85;24569;-86
2021/11/21 01:07:58;;;;;;;;;;;;;;;8.76;88.58;98012.77;1667786;84;21971;-85
2021/11/21 01:10:24;;;;;;;;;;;;;;;8.78;88.62;98010.86;1663695;84;21077;-86
2021/11/21 01:12:55;;;;;;;;;;;;;;;8.80;88.65;98005.55;1670648;83;24597;-85
2021/11/21 01:15:23;;;;;;;;;;;;;;;8.84;88.69;97990.53;1663465;83;20497;-85
2021/11/21 01:17:49;;;;;;;;;;;;;;;8.83;88.72;97987.56;1659257;85;24571;-85
2021/11/21 01:20:16;;;;;;;;;;;;;;;8.86;88.74;97982.11;1671014;85;22263;-85
2021/11/21 01:22:42;;;;;;;;;;;;;;;8.88;88.74;97977.63;1668847;85;26062;-85
2021/11/21 01:25:10;;;;;;;;;;;;;;;8.88;88.78;97968.50;1667770;83;24440;-85
2021/11/21 01:27:38;;;;;;;;;;;;;;;8.86;88.77;97960.77;1664555;85;20149;-85
2021/11/21 01:30:05;;;;;;;;;;;;;;;8.85;88.79;97958.26;1676775;85;24696;-85
2021/11/21 01:32:33;;;;;;;;;;;;;;;8.83;88.78;97961.47;1682618;83;20448;-85
2021/11/21 01:35:03;;;;;;;;;;;;;;;8.83;88.78;97941.90;1672304;84;25420;-85
2021/11/21 01:37:29;;;;;;;;;;;;;;;8.82;88.75;97944.98;1672098;84;24488;-86
2021/11/21 01:39:55;;;;;;;;;;;;;;;8.81;88.71;97933.70;1665807;83;20249;-85
2021/11/21 01:42:23;;;;;;;;;;;;;;;8.80;88.69;97931.19;1674962;84;20224;-85
2021/11/21 01:44:51;;;;;;;;;;;;;;;8.76;88.65;97931.05;1676700;84;22144;-84
2021/11/21 01:47:18;;;;;;;;;;;;;;;8.75;88.58;97927.61;1676898;83;26916;-85
2021/11/21 01:49:45;;;;;;;;;;;;;;;8.72;88.54;97932.22;1673686;83;25200;-85
2021/11/21 01:52:11;;;;;;;;;;;;;;;8.70;88.50;97938.84;1677686;83;20230;-84
2021/11/21 01:54:38;;;;;;;;;;;;;;;8.66;88.45;97928.27;1673127;85;25190;-84
2021/11/21 01:57:04;;;;;;;;;;;;;;;8.66;88.39;97924.35;1673060;85;22579;-84
2021/11/21 01:59:30;;;;;;;;;;;;;;;8.65;88.34;97917.93;1673136;84;26172;-84
2021/11/21 02:01:58;;;;;;;;;;;;;;;8.61;88.27;97923.84;1670854;85;24475;-84
2021/11/21 02:04:24;;;;;;;;;;;;;;;8.59;88.20;97923.58;1671112;85;20473;-84
2021/11/21 02:06:50;;;;;;;;;;;;;;;8.58;88.11;97915.38;1672416;85;24457;-84
2021/11/21 02:09:16;;;;;;;;;;;;;;;8.57;88.03;97915.84;1665924;84;22083;-84
2021/11/21 02:11:42;;;;;;;;;;;;;;;8.57;87.98;97910.63;1673368;84;26797;-85
2021/11/21 02:14:09;;;;;;;;;;;;;;;8.55;87.92;97907.78;1675599;85;21578;-84
2021/11/21 02:16:35;;;;;;;;;;;;;;;8.56;87.89;97902.47;1672558;83;20161;-85
2021/11/21 02:19:07;;;;;;;;;;;;;;;8.55;87.82;97908.62;1666630;84;25207;-84
2021/11/21 02:21:33;;;;;;;;;;;;;;;8.54;87.75;97895.68;1671058;83;22032;-84
2021/11/21 02:23:59;;;;;;;;;;;;;;;8.54;87.70;97891.30;1665209;84;26006;-84
2021/11/21 02:26:25;;;;;;;;;;;;;;;8.52;87.64;97884.05;1670583;84;25310;-84
2021/11/21 02:28:53;;;;;;;;;;;;;;;8.51;87.58;97879.77;1673245;84;20288;-84
2021/11/21 02:31:20;;;;;;;;;;;;;;;8.50;87.52;97870.30;1673626;84;24583;-85
2021/11/21 02:33:49;;;;;;;;;;;;;;;8.48;87.47;97868.26;1663394;85;22191;-85
2021/11/21 02:36:15;;;;;;;;;;;;;;;8.48;87.43;97867.42;1676524;83;26049;-85
2021/11/21 02:38:41;;;;;;;;;;;;;;;8.48;87.37;97870.03;1669888;84;24568;-85
2021/11/21 02:41:09;;;;;;;;;;;;;;;8.48;87.34;97869.56;1674280;83;20490;-85
2021/11/21 02:43:36;;;;;;;;;;;;;;;8.52;87.34;97872.78;1643094;85;24740;-85
2021/11/21 02:46:02;;;;;;;;;;;;;;;8.51;87.29;97860.20;1671396;84;21995;-85
2021/11/21 02:48:30;;;;;;;;;;;;;;;8.52;87.26;97861.88;1669904;85;26075;-85
2021/11/21 02:51:02;;;;;;;;;;;;;;;8.53;87.25;97859.64;1678782;83;25223;-86
2021/11/21 02:53:30;;;;;;;;;;;;;;;8.52;87.24;97846.23;1646496;84;20218;-85
2021/11/21 02:55:57;;;;;;;;;;;;;;;8.52;87.20;97846.70;1673115;84;24631;-85
2021/11/21 02:58:23;;;;;;;;;;;;;;;8.52;87.17;97850.61;1670590;84;21959;-85
2021/11/21 03:00:52;;;;;;;;;;;;;;;8.51;87.14;97851.08;1672552;84;26124;-85
2021/11/21 03:03:19;;;;;;;;;;;;;;;8.55;87.13;97847.80;1662989;85;24646;-85
2021/11/21 03:05:45;;;;;;;;;;;;;;;8.53;87.11;97840.08;1672630;85;20278;-85
2021/11/21 03:08:12;;;;;;;;;;;;;;;8.55;87.07;97840.81;1672783;85;24582;-85
2021/11/21 03:10:38;;;;;;;;;;;;;;;8.53;87.06;97832.72;1666095;83;22974;-84
2021/11/21 03:13:07;;;;;;;;;;;;;;;8.53;87.01;97828.81;1665776;83;26042;-85
2021/11/21 03:15:33;;;;;;;;;;;;;;;8.54;86.97;97821.36;1693747;83;24399;-85
2021/11/21 03:18:00;;;;;;;;;;;;;;;8.55;86.95;97822.56;1672314;84;20289;-86
2021/11/21 03:20:28;;;;;;;;;;;;;;;8.52;86.92;97814.94;1675024;84;24689;-85
2021/11/21 03:22:54;;;;;;;;;;;;;;;8.48;86.86;97813.97;1664370;85;22020;-85
2021/11/21 03:25:21;;;;;;;;;;;;;;;8.44;86.80;97809.92;1665103;84;26602;-84
2021/11/21 03:27:47;;;;;;;;;;;;;;;8.39;86.73;97797.22;1665246;85;24539;-84
2021/11/21 03:30:15;;;;;;;;;;;;;;;8.39;86.65;97804.57;1670345;85;20293;-84
2021/11/21 03:32:41;;;;;;;;;;;;;;;8.40;86.68;97805.37;1672743;84;26482;-85
2021/11/21 03:35:08;;;;;;;;;;;;;;;8.39;86.65;97808.95;1682460;84;22655;-85
2021/11/21 03:37:34;;;;;;;;;;;;;;;8.38;86.69;97803.36;1674366;84;26041;-84
2021/11/21 03:40:01;;;;;;;;;;;;;;;8.37;86.66;97803.83;1671799;84;24463;-84
2021/11/21 03:42:27;;;;;;;;;;;;;;;8.39;86.65;97799.83;1671058;85;20165;-84
2021/11/21 03:44:53;;;;;;;;;;;;;;;8.39;86.62;97793.30;1673969;84;20239;-84
2021/11/21 03:47:19;;;;;;;;;;;;;;;8.43;86.58;97799.13;1678965;84;20272;-84
2021/11/21 03:49:45;;;;;;;;;;;;;;;8.38;86.53;97793.77;1674262;84;26141;-84
2021/11/21 03:52:11;;;;;;;;;;;;;;;8.34;86.45;97789.73;1672452;84;24391;-84
2021/11/21 03:54:37;;;;;;;;;;;;;;;8.30;86.38;97787.42;1674306;85;20173;-84
2021/11/21 03:57:04;;;;;;;;;;;;;;;8.25;86.34;97784.27;1666388;84;24547;-84
2021/11/21 03:59:30;;;;;;;;;;;;;;;8.24;86.32;97781.30;1650339;85;21977;-85
2021/11/21 04:01:59;;;;;;;;;;;;;;;8.22;86.27;97779.30;1667952;83;20866;-85
2021/11/21 04:04:24;;;;;;;;;;;;;;;8.24;86.25;97777.39;1668056;85;24563;-84
2021/11/21 04:06:50;;;;;;;;;;;;;;;8.23;86.23;97782.27;1668066;85;20310;-84
2021/11/21 04:09:17;;;;;;;;;;;;;;;8.18;86.20;97779.16;1668254;84;25554;-84
2021/11/21 04:11:43;;;;;;;;;;;;;;;8.16;86.16;97771.91;1668268;84;22090;-84
2021/11/21 04:14:12;;;;;;;;;;;;;;;8.14;86.12;97773.78;1671542;85;21824;-84
2021/11/21 04:16:48;;;;;;;;;;;;;;;8.12;86.08;97771.30;1673276;84;25196;-84
2021/11/21 04:19:14;;;;;;;;;;;;;;;8.08;86.04;97768.99;1673414;83;20534;-84
2021/11/21 04:21:40;;;;;;;;;;;;;;;8.03;85.96;97768.48;1668816;85;20239;-83
2021/11/21 04:24:12;;;;;;;;;;;;;;;7.97;85.93;97765.38;1677337;83;21943;-83
2021/11/21 04:26:35;;;;;;;;;;;;;;;7.94;85.89;97764.77;1671726;83;26254;-84
2021/11/21 04:29:07;;;;;;;;;;;;;;;7.95;85.87;97765.13;1664511;85;25326;-85
2021/11/21 04:31:33;;;;;;;;;;;;;;;7.97;85.82;97760.16;1669741;83;20259;-85
2021/11/21 04:33:59;;;;;;;;;;;;;;;7.96;85.76;97761.09;1671752;85;20239;-85
2021/11/21 04:36:28;;;;;;;;;;;;;;;7.93;85.71;97760.48;1668022;85;20823;-84
2021/11/21 04:38:54;;;;;;;;;;;;;;;7.87;85.67;97755.23;1662377;85;25954;-85
2021/11/21 04:41:20;;;;;;;;;;;;;;;7.81;85.60;97751.75;1675532;83;24439;-85
2021/11/21 04:43:48;;;;;;;;;;;;;;;7.81;85.53;97747.84;1677606;83;20340;-85
2021/11/21 04:46:14;;;;;;;;;;;;;;;7.76;85.48;97740.82;1674541;85;24565;-85
2021/11/21 04:48:40;;;;;;;;;;;;;;;7.72;85.40;97735.47;1670406;83;22130;-85
2021/11/21 04:51:06;;;;;;;;;;;;;;;7.69;85.37;97734.36;1672611;84;26068;-85
2021/11/21 04:53:32;;;;;;;;;;;;;;;7.67;85.34;97730.22;1670903;83;20725;-85
2021/11/21 04:55:58;;;;;;;;;;;;;;;7.60;85.29;97734.17;1668353;85;20290;-85
2021/11/21 04:58:25;;;;;;;;;;;;;;;7.54;85.25;97725.84;1676727;84;24576;-85
2021/11/21 05:00:51;;;;;;;;;;;;;;;7.56;85.23;97722.69;1670064;84;21957;-85
2021/11/21 05:03:18;;;;;;;;;;;;;;;7.52;85.20;97717.33;1668588;84;26738;-85
2021/11/21 05:05:44;;;;;;;;;;;;;;;7.55;85.20;97713.20;1669687;84;24527;-85
2021/11/21 05:08:10;;;;;;;;;;;;;;;7.56;85.18;97709.66;1666469;84;20324;-85
2021/11/21 05:10:36;;;;;;;;;;;;;;;7.52;85.13;97703.48;1673636;84;24652;-85
2021/11/21 05:13:02;;;;;;;;;;;;;;;7.51;85.12;97707.02;1669235;84;22068;-85
2021/11/21 05:15:28;;;;;;;;;;;;;;;7.48;85.09;97709.34;1674787;84;21027;-85
2021/11/21 05:17:54;;;;;;;;;;;;;;;7.46;85.05;97709.94;1671995;84;24447;-85
2021/11/21 05:20:20;;;;;;;;;;;;;;;7.43;85.02;97704.92;1670938;85;20217;-85
2021/11/21 05:22:47;;;;;;;;;;;;;;;7.42;85.02;97700.66;1673508;84;24578;-85
2021/11/21 05:25:13;;;;;;;;;;;;;;;7.41;85.00;97700.78;1673673;84;22619;-85
2021/11/21 05:27:43;;;;;;;;;;;;;;;7.41;84.96;97700.31;1671040;84;25883;-85
2021/11/21 05:30:13;;;;;;;;;;;;;;;7.38;84.96;97695.77;1670548;84;24473;-85
2021/11/21 05:32:38;;;;;;;;;;;;;;;7.35;84.91;97694.22;1668674;83;20246;-85
2021/11/21 05:35:04;;;;;;;;;;;;;;;7.31;84.88;97694.05;1674812;85;24554;-85
2021/11/21 05:37:34;;;;;;;;;;;;;;;7.28;84.84;97693.44;1677821;83;22068;-85
2021/11/21 05:40:00;;;;;;;;;;;;;;;7.27;84.78;97687.86;1671882;85;26164;-85
2021/11/21 05:42:28;;;;;;;;;;;;;;;7.24;84.76;97688.08;1668959;85;24430;-86
2021/11/21 05:44:54;;;;;;;;;;;;;;;7.23;84.72;97684.64;1667486;84;20369;-85
2021/11/21 05:47:20;;;;;;;;;;;;;;;7.23;84.72;97678.61;1673091;85;20806;-85
2021/11/21 05:49:46;;;;;;;;;;;;;;;7.23;84.73;97680.74;1673395;84;20244;-85
2021/11/21 05:52:12;;;;;;;;;;;;;;;7.21;84.71;97681.77;1671113;85;26029;-85
2021/11/21 05:54:38;;;;;;;;;;;;;;;7.18;84.69;97678.09;1668675;85;24637;-84
2021/11/21 05:57:05;;;;;;;;;;;;;;;7.15;84.69;97672.15;1649628;85;20270;-84
2021/11/21 05:59:39;;;;;;;;;;;;;;;7.09;84.64;97670.45;1666140;84;24677;-85
2021/11/21 06:02:05;;;;;;;;;;;;;;;7.08;84.61;97679.19;1672824;85;22205;-84
2021/11/21 06:04:32;;;;;;;;;;;;;;;7.02;84.60;97673.09;1673959;84;26045;-84
2021/11/21 06:06:58;;;;;;;;;;;;;;;7.01;84.60;97667.06;1668556;85;24587;-84
2021/11/21 06:09:24;;;;;;;;;;;;;;;7.00;84.59;97665.39;1670557;84;20330;-84
2021/11/21 06:11:53;;;;;;;;;;;;;;;7.03;84.60;97661.77;1664206;85;24680;-84
2021/11/21 06:14:19;;;;;;;;;;;;;;;6.99;84.58;97660.28;1669020;84;22014;-84
2021/11/21 06:16:45;;;;;;;;;;;;;;;6.95;84.56;97662.27;1669955;84;26754;-84
2021/11/21 06:19:11;;;;;;;;;;;;;;;6.93;84.57;97660.69;1681614;83;24481;-84
2021/11/21 06:21:37;;;;;;;;;;;;;;;6.92;84.53;97660.36;1679948;85;20192;-84
2021/11/21 06:24:03;;;;;;;;;;;;;;;6.87;84.52;97656.77;1673678;84;24627;-84
2021/11/21 06:26:29;;;;;;;;;;;;;;;6.87;84.51;97658.53;1667357;84;22788;-85
2021/11/21 06:28:59;;;;;;;;;;;;;;;6.86;84.52;97653.80;1669002;84;21205;-85
2021/11/21 06:31:25;;;;;;;;;;;;;;;6.85;84.53;97656.03;1666685;84;24632;-85
2021/11/21 06:33:51;;;;;;;;;;;;;;;6.84;84.54;97659.55;1674210;83;20377;-85
2021/11/21 06:36:17;;;;;;;;;;;;;;;6.83;84.55;97664.39;1670178;82;24693;-85
2021/11/21 06:38:43;;;;;;;;;;;;;;;6.82;84.52;97665.81;1676142;84;22182;-85
2021/11/21 06:41:10;;;;;;;;;;;;;;;6.79;84.53;97665.53;1676154;83;26848;-85
2021/11/21 06:43:37;;;;;;;;;;;;;;;6.78;84.51;97657.83;1680031;85;25405;-85
2021/11/21 06:46:02;;;;;;;;;;;;;;;6.75;84.53;97658.88;1668065;83;20316;-85
2021/11/21 06:48:34;;;;;;;;;;;;;;;6.72;84.54;97659.07;1673016;84;20299;-85
2021/11/21 06:51:00;;;;;;;;;;;;;;;6.69;84.54;97653.63;1664278;85;22098;-85
2021/11/21 06:53:27;;;;;;;;;;;;;;;6.68;84.54;97646.75;1672523;83;26239;-85
2021/11/21 06:55:52;;;;;;;;;;;;;;;6.70;84.55;97648.80;1674552;85;25127;-86
2021/11/21 06:58:19;;;;;;;;;;;;;;;6.70;84.58;97651.86;1671561;84;20527;-84
2021/11/21 07:00:45;;;;;;;;;;;;;;;6.69;84.61;97651.02;1672451;84;20279;-85
2021/11/21 07:03:11;;;;;;;;;;;;;;;6.69;84.64;97657.52;1671442;84;21991;-85
2021/11/21 07:05:37;;;;;;;;;;;;;;;6.69;84.64;97657.98;1676410;83;20957;-85
2021/11/21 07:08:03;;;;;;;;;;;;;;;6.71;84.66;97649.59;1670307;84;24470;-84
2021/11/21 07:10:29;;;;;;;;;;;;;;;6.74;84.71;97649.41;1668862;83;20367;-84
2021/11/21 07:12:55;;;;;;;;;;;;;;;6.77;84.73;97637.49;1662379;85;24743;-84
2021/11/21 07:15:21;;;;;;;;;;;;;;;6.82;84.77;97641.11;1677790;84;22132;-84
2021/11/21 07:17:49;;;;;;;;;;;;;;;6.86;84.84;97641.27;1672389;84;26110;-84
2021/11/21 07:20:15;;;;;;;;;;;;;;;6.86;84.89;97634.30;1673651;84;24494;-84
2021/11/21 07:22:43;;;;;;;;;;;;;;;6.87;84.91;97632.53;1670438;85;20600;-85
2021/11/21 07:25:08;;;;;;;;;;;;;;;6.92;84.90;97628.68;1669759;85;24737;-85
2021/11/21 07:27:34;;;;;;;;;;;;;;;6.98;84.94;97623.53;1673738;83;20306;-87
2021/11/21 07:30:04;;;;;;;;;;;;;;;6.98;84.97;97625.63;1661082;85;26048;-87
2021/11/21 07:32:30;;;;;;;;;;;;;;;6.98;85.01;97630.84;1669517;84;24540;-87
2021/11/21 07:35:01;;;;;;;;;;;;;;;6.96;85.00;97627.52;1680077;83;20173;-87
2021/11/21 07:37:27;;;;;;;;;;;;;;;6.97;85.03;97633.56;1673141;84;24705;-87
2021/11/21 07:39:53;;;;;;;;;;;;;;;7.03;85.04;97642.25;1669630;84;22860;-85
2021/11/21 07:42:20;;;;;;;;;;;;;;;7.05;85.07;97630.79;1675249;84;26173;-84
2021/11/21 07:44:47;;;;;;;;;;;;;;;7.04;85.08;97623.92;1665497;85;25337;-85
2021/11/21 07:47:13;;;;;;;;;;;;;;;7.08;85.08;97624.09;1678249;85;20551;-84
2021/11/21 07:49:39;;;;;;;;;;;;;;;7.15;85.15;97624.48;1672222;84;24530;-85
2021/11/21 07:52:06;;;;;;;;;;;;;;;7.23;85.17;97617.45;1666822;85;22183;-85
2021/11/21 07:54:32;;;;;;;;;;;;;;;7.21;85.14;97615.42;1673256;85;26016;-85
2021/11/21 07:56:58;;;;;;;;;;;;;;;7.21;85.14;97615.42;1673462;84;24467;-85
2021/11/21 07:59:25;;;;;;;;;;;;;;;7.21;85.13;97616.72;1672822;84;20153;-85
2021/11/21 08:01:51;;;;;;;;;;;;;;;7.21;85.11;97614.95;1665905;84;24506;-85
2021/11/21 08:04:17;;;;;;;;;;;;;;;7.18;85.09;97608.67;1672681;85;22014;-84
2021/11/21 08:06:43;;;;;;;;;;;;;;;7.13;85.04;97605.56;1692916;83;26612;-84
2021/11/21 08:09:10;;;;;;;;;;;;;;;7.13;85.01;97605.09;1672638;85;24477;-85
2021/11/21 08:11:36;;;;;;;;;;;;;;;7.11;84.95;97597.85;1670810;85;20226;-84
2021/11/21 08:14:02;;;;;;;;;;;;;;;7.07;84.92;97597.70;1669781;84;25504;-85
2021/11/21 08:16:28;;;;;;;;;;;;;;;7.03;84.90;97593.66;1672150;84;20824;-85
2021/11/21 08:18:54;;;;;;;;;;;;;;;7.02;84.86;97589.86;1674994;85;26982;-85
2021/11/21 08:21:20;;;;;;;;;;;;;;;7.04;84.87;97586.20;1673267;85;24558;-85
2021/11/21 08:23:46;;;;;;;;;;;;;;;7.07;84.89;97585.16;1670379;85;20213;-85
2021/11/21 08:26:12;;;;;;;;;;;;;;;7.10;84.89;97588.38;1673578;84;24563;-85
2021/11/21 08:28:39;;;;;;;;;;;;;;;7.14;84.92;97592.92;1672418;85;22021;-86
2021/11/21 08:31:06;;;;;;;;;;;;;;;7.17;84.96;97594.45;1641091;86;26086;-85
2021/11/21 08:33:33;;;;;;;;;;;;;;;7.22;84.98;97584.56;1636610;86;24543;-85
2021/11/21 08:36:00;;;;;;;;;;;;;;;7.30;85.04;97588.77;1635798;85;20279;-85
2021/11/21 08:38:26;;;;;;;;;;;;;;;7.36;85.08;97583.14;1677606;84;24931;-85
2021/11/21 08:40:53;;;;;;;;;;;;;;;7.44;85.13;97579.52;1670580;84;22047;-86
2021/11/21 08:43:19;;;;;;;;;;;;;;;7.52;85.18;97578.05;1670576;85;26994;-86
2021/11/21 08:45:45;;;;;;;;;;;;;;;7.61;85.23;97571.80;1674197;83;24714;-85
2021/11/21 08:48:13;;;;;;;;;;;;;;;7.68;85.29;97572.57;1666298;85;20192;-86
2021/11/21 08:50:39;;;;;;;;;;;;;;;7.77;85.33;97564.08;1677949;84;24820;-85
2021/11/21 08:53:05;;;;;;;;;;;;;;;7.86;85.39;97568.61;1676217;84;21954;-85
2021/11/21 08:55:31;;;;;;;;;;;;;;;7.95;85.42;97579.69;1676214;84;25972;-85
2021/11/21 08:57:57;;;;;;;;;;;;;;;8.03;85.45;97575.67;1669754;85;20276;-85
2021/11/21 09:00:24;;;;;;;;;;;;;;;8.10;85.46;97582.11;1667455;84;20354;-85
2021/11/21 09:02:50;;;;;;;;;;;;;;;8.17;85.48;97580.72;1672169;85;25373;-86
2021/11/21 09:05:16;;;;;;;;;;;;;;;8.24;85.47;97581.91;1674582;84;21893;-85
2021/11/21 09:07:43;;;;;;;;;;;;;;;8.28;85.45;97572.94;1661194;85;26089;-86
2021/11/21 09:10:14;;;;;;;;;;;;;;;8.32;85.39;97577.00;1666553;84;24435;-86
2021/11/21 09:12:43;;;;;;;;;;;;;;;8.33;85.39;97561.26;1675482;83;20435;-86
2021/11/21 09:15:10;;;;;;;;;;;;;;;8.41;85.33;97571.09;1677051;84;25491;-86
2021/11/21 09:17:37;;;;;;;;;;;;;;;8.47;85.30;97561.98;1674077;84;21987;-86
2021/11/21 09:20:16;;;;;;;;;;;;;;;8.49;85.25;97559.63;1661611;85;26149;-86
2021/11/21 09:22:42;;;;;;;;;;;;;;;8.53;85.21;97551.92;1675122;84;24529;-85
2021/11/21 09:25:09;;;;;;;;;;;;;;;8.55;85.13;97553.95;1667914;85;20170;-86
2021/11/21 09:27:36;;;;;;;;;;;;;;;8.58;85.06;97560.23;1665257;85;24881;-86
2021/11/21 09:30:06;;;;;;;;;;;;;;;8.60;84.98;97549.69;1671257;85;21986;-86
2021/11/21 09:32:31;;;;;;;;;;;;;;;8.62;84.86;97553.02;1675450;84;25991;-86
2021/11/21 09:34:57;;;;;;;;;;;;;;;8.66;84.84;97544.84;1674728;84;20614;-86
2021/11/21 09:37:24;;;;;;;;;;;;;;;8.72;84.75;97540.94;1673191;85;20545;-86
2021/11/21 09:39:50;;;;;;;;;;;;;;;8.80;84.71;97548.98;1676296;84;24737;-86
2021/11/21 09:42:16;;;;;;;;;;;;;;;8.83;84.65;97542.25;1673683;85;20227;-86
2021/11/21 09:44:44;;;;;;;;;;;;;;;8.84;84.57;97532.14;1672960;84;26108;-86
2021/11/21 09:47:14;;;;;;;;;;;;;;;8.90;84.49;97532.14;1673896;85;25369;-86
2021/11/21 09:49:40;;;;;;;;;;;;;;;8.93;84.43;97537.98;1675680;85;20527;-87
2021/11/21 09:52:16;;;;;;;;;;;;;;;9.01;84.38;97541.28;1671935;85;24946;-87
2021/11/21 09:54:44;;;;;;;;;;;;;;;9.04;84.34;97534.06;1676258;85;22185;-88
2021/11/21 09:57:19;;;;;;;;;;;;;;;9.11;84.27;97534.42;1670000;84;26193;-86
2021/11/21 09:59:53;;;;;;;;;;;;;;;9.13;84.22;97536.41;1668919;84;25142;-86
2021/11/21 10:02:21;;;;;;;;;;;;;;;9.16;84.15;97540.11;1667351;84;20330;-87
2021/11/21 10:04:48;;;;;;;;;;;;;;;9.19;84.09;97533.33;1669714;84;24749;-87
2021/11/21 10:07:21;;;;;;;;;;;;;;;9.22;83.96;97529.98;1670890;84;22096;-86
2021/11/21 10:09:48;;;;;;;;;;;;;;;9.26;83.90;97529.77;1662755;84;26732;-86
2021/11/21 10:12:14;;;;;;;;;;;;;;;9.27;83.80;97537.95;1673600;84;24518;-86
2021/11/21 10:14:48;;;;;;;;;;;;;;;9.29;83.70;97531.65;1667581;84;20350;-86
2021/11/21 10:17:16;;;;;;;;;;;;;;;9.31;83.62;97535.45;1671338;84;24829;-85
2021/11/21 10:19:43;;;;;;;;;;;;;;;9.29;83.50;97530.34;1670999;85;22250;-84
2021/11/21 10:22:10;;;;;;;;;;;;;;;9.35;83.42;97531.64;1676073;84;26809;-85
2021/11/21 10:24:36;;;;;;;;;;;;;;;9.41;83.36;97530.68;1675396;84;20326;-87
2021/11/21 10:27:16;;;;;;;;;;;;;;;9.49;83.28;97527.47;1676363;83;20365;-87
2021/11/21 10:29:43;;;;;;;;;;;;;;;9.57;83.24;97521.98;1672608;85;24764;-87
2021/11/21 10:32:19;;;;;;;;;;;;;;;9.65;83.19;97517.45;1671831;85;22937;-86
2021/11/21 10:34:57;;;;;;;;;;;;;;;9.69;83.11;97525.86;1664420;84;26182;-85
2021/11/21 10:37:31;;;;;;;;;;;;;;;9.71;83.02;97514.83;1670656;84;25132;-85
2021/11/21 10:40:02;;;;;;;;;;;;;;;9.71;82.90;97513.52;1641438;85;20213;-85
2021/11/21 10:42:28;;;;;;;;;;;;;;;9.74;82.80;97513.25;1674436;83;24778;-85
2021/11/21 10:44:54;;;;;;;;;;;;;;;9.71;82.67;97506.98;1675894;83;21982;-85
2021/11/21 10:47:20;;;;;;;;;;;;;;;9.71;82.53;97498.64;1672898;84;26691;-85
2021/11/21 10:49:48;;;;;;;;;;;;;;;9.77;82.40;97506.45;1670327;84;24547;-85
2021/11/21 10:52:18;;;;;;;;;;;;;;;9.83;82.31;97493.73;1678794;83;20378;-85
2021/11/21 10:54:51;;;;;;;;;;;;;;;9.89;82.28;97498.94;1675616;84;24771;-85
2021/11/21 10:57:19;;;;;;;;;;;;;;;9.95;82.22;97490.59;1668625;84;21999;-85
2021/11/21 10:59:50;;;;;;;;;;;;;;;10.06;82.13;97490.06;1667821;85;26115;-85
2021/11/21 11:02:26;;;;;;;;;;;;;;;10.13;82.03;97481.24;1671548;84;24402;-85
2021/11/21 11:05:03;;;;;;;;;;;;;;;10.19;81.93;97481.24;1670354;85;20352;-85
2021/11/21 11:07:32;;;;;;;;;;;;;;;10.24;81.85;97472.53;1672614;85;24865;-85
2021/11/21 11:09:58;;;;;;;;;;;;;;;10.17;81.70;97449.98;1675959;83;21965;-85
2021/11/21 11:12:25;;;;;;;;;;;;;;;10.22;81.52;97458.27;1679429;84;26010;-85
2021/11/21 11:14:53;;;;;;;;;;;;;;;10.21;81.36;97453.99;1672187;85;24547;-85
2021/11/21 11:17:19;;;;;;;;;;;;;;;10.21;81.24;97450.07;1678062;84;20521;-85
2021/11/21 11:19:45;;;;;;;;;;;;;;;10.19;81.12;97444.16;1673294;84;25611;-85
2021/11/21 11:22:12;;;;;;;;;;;;;;;10.19;80.98;97445.47;1665178;85;22057;-85
2021/11/21 11:24:42;;;;;;;;;;;;;;;10.20;80.82;97442.38;1674156;84;26138;-87
2021/11/21 11:27:10;;;;;;;;;;;;;;;10.20;80.69;97447.09;1669313;85;24479;-88
2021/11/21 11:29:38;;;;;;;;;;;;;;;10.24;80.58;97438.06;1665992;84;20343;-87
2021/11/21 11:32:21;;;;;;;;;;;;;;;10.28;80.48;97428.16;1674615;83;25018;-87
2021/11/21 11:34:47;;;;;;;;;;;;;;;10.29;80.37;97431.96;1670596;85;21994;-87
2021/11/21 11:37:14;;;;;;;;;;;;;;;10.36;80.25;97423.13;1666659;85;26086;-87
2021/11/21 11:39:41;;;;;;;;;;;;;;;10.44;80.17;97423.28;1680242;84;24478;-87
2021/11/21 11:42:26;;;;;;;;;;;;;;;10.51;80.09;97414.44;1670244;84;20289;-87
2021/11/21 11:44:54;;;;;;;;;;;;;;;10.61;80.06;97419.23;1662423;83;24827;-88
2021/11/21 11:47:24;;;;;;;;;;;;;;;10.69;80.03;97421.52;1677248;84;22769;-87
2021/11/21 11:49:50;;;;;;;;;;;;;;;10.75;79.95;97420.16;1674227;84;25868;-87
2021/11/21 11:52:19;;;;;;;;;;;;;;;10.80;79.83;97414.88;1670977;85;24488;-86
2021/11/21 11:54:48;;;;;;;;;;;;;;;10.88;79.72;97415.05;1662020;84;20260;-87
2021/11/21 11:57:22;;;;;;;;;;;;;;;10.95;79.63;97408.80;1668271;85;20272;-87
2021/11/21 11:59:50;;;;;;;;;;;;;;;11.02;79.52;97404.66;1673641;84;22039;-85
2021/11/21 12:02:28;;;;;;;;;;;;;;;11.09;79.41;97399.72;1693913;83;25958;-87
2021/11/21 12:04:55;;;;;;;;;;;;;;;11.13;79.29;97404.55;1674803;85;24684;-85
2021/11/21 12:07:23;;;;;;;;;;;;;;;11.13;79.18;97399.30;1672326;84;21230;-87
2021/11/21 12:09:57;;;;;;;;;;;;;;;11.21;79.07;97406.50;1674388;84;25504;-85
2021/11/21 12:12:25;;;;;;;;;;;;;;;11.30;78.97;97406.98;1672374;84;22865;-85
2021/11/21 12:14:51;;;;;;;;;;;;;;;11.39;78.86;97409.28;1670334;85;25989;-84
2021/11/21 12:17:25;;;;;;;;;;;;;;;11.42;78.75;97414.23;1678546;84;25094;-85
2021/11/21 12:19:52;;;;;;;;;;;;;;;11.42;78.56;97412.44;1680638;84;20259;-85
2021/11/21 12:22:26;;;;;;;;;;;;;;;11.41;78.40;97407.33;1669566;85;25503;-84
2021/11/21 12:24:53;;;;;;;;;;;;;;;11.37;78.20;97407.27;1672638;85;22714;-86
2021/11/21 12:27:22;;;;;;;;;;;;;;;11.28;78.01;97414.99;1675532;84;26049;-85
2021/11/21 12:29:50;;;;;;;;;;;;;;;11.20;77.82;97412.69;1632889;86;24544;-86
2021/11/21 12:32:21;;;;;;;;;;;;;;;11.21;77.69;97413.05;1606772;87;20223;-86
2021/11/21 12:34:53;;;;;;;;;;;;;;;11.20;77.61;97417.45;1620326;87;24992;-86
2021/11/21 12:37:26;;;;;;;;;;;;;;;11.11;77.49;97414.83;1619950;86;22076;-86
2021/11/21 12:40:09;;;;;;;;;;;;;;;11.11;77.38;97410.42;1620882;86;26098;-87
2021/11/21 12:42:36;;;;;;;;;;;;;;;11.17;77.31;97411.19;1615267;86;24094;-86
2021/11/21 12:45:14;;;;;;;;;;;;;;;11.23;77.25;97413.75;1616777;87;20479;-86
2021/11/21 12:47:42;;;;;;;;;;;;;;;11.26;77.18;97416.91;1675387;84;25622;-86
2021/11/21 12:50:09;;;;;;;;;;;;;;;11.26;77.07;97416.91;1662907;84;21971;-86
2021/11/21 12:52:37;;;;;;;;;;;;;;;11.21;76.94;97416.97;1668840;84;26916;-86
2021/11/21 12:55:04;;;;;;;;;;;;;;;11.17;76.80;97419.05;1670307;84;24617;-85
2021/11/21 12:57:44;;;;;;;;;;;;;;;11.13;76.70;97415.50;1668230;83;20393;-85